^^
Saratoga-Weather Station Historical Data
Daily Summary for June 28, 2020 Units:  Both    English   Metric
Daily Weekly Monthly Yearly Custom
  High: Low: Average:
Temperature: 46 °F /  7.8 °C 35.2 °F /  1.8 °C 40.6 °F /  4.8 °C
Dew Point: 43.7 °F /  6.5 °C 33.1 °F /  0.6 °C 38.1 °F /  3.4 °C
Humidity: 94% 82% 91%
Wind Speed: 29.1mph /  46.8km/h - 0.4mph /  0.6km/h
Wind Gust: 29mph /  46.7km/h - -
Wind- - West
Pressure: 29.7 in /  1004.7 hPa 29.4 in /  995.3 hPa -
Precipitation: 0.33 in /  8.4 mm    
Historical Graphs
 
 
Tabular Data for June 28, 2020
Time Temperature Dew Point Pressure Wind Wind Speed Wind Gust Humidity Rainfall Rate (Hourly) solar
00:04 45.7 °F /  7.6 °C 43.7 °F /  6.5 °C 29.5in /  1000.0hPa WNW 0.9mph /  1.4km/h 5mph /  8km/h 93% 0.01in /  0.2mm 0 W/m2
00:09 45.7 °F /  7.6 °C 43.7 °F /  6.5 °C 29.5in /  1000.0hPa Calm   3mph /  4.8km/h 93% 0.01in /  0.2mm 0 W/m2
00:14 45.9 °F /  7.7 °C 43.7 °F /  6.5 °C 29.5in /  1000.0hPa SSW 4mph /  6.4km/h 8mph /  12.9km/h 92% 0.01in /  0.2mm 0 W/m2
00:19 45.9 °F /  7.7 °C 43.7 °F /  6.5 °C 29.5in /  1000.0hPa Calm     92% 0in /  0.0mm 0 W/m2
00:24 45.9 °F /  7.7 °C 43.7 °F /  6.5 °C 29.5in /  1000.0hPa Calm   8mph /  12.9km/h 92% 0in /  0.0mm 0 W/m2
00:29 45.9 °F /  7.7 °C 43.7 °F /  6.5 °C 29.5in /  1000.0hPa Calm   2mph /  3.2km/h 92% 0in /  0.0mm 0 W/m2
00:34 45.9 °F /  7.7 °C 43.3 °F /  6.3 °C 29.5in /  1000.0hPa Calm   3mph /  4.8km/h 91% 0in /  0.0mm 0 W/m2
00:39 46 °F /  7.8 °C 43.5 °F /  6.4 °C 29.5in /  1000.0hPa Calm   2mph /  3.2km/h 91% 0in /  0.0mm 0 W/m2
00:44 46 °F /  7.8 °C 43.5 °F /  6.4 °C 29.5in /  1000.0hPa WSW 8.1mph /  13km/h 12mph /  19.3km/h 91% 0in /  0.0mm 0 W/m2
00:49 46 °F /  7.8 °C 43.5 °F /  6.4 °C 29.5in /  1000.0hPa Calm   8mph /  12.9km/h 91% 0in /  0.0mm 0 W/m2
00:54 46 °F /  7.8 °C 43.5 °F /  6.4 °C 29.5in /  999.7hPa Calm   12mph /  19.3km/h 91% 0in /  0.0mm 0 W/m2
00:59 45.9 °F /  7.7 °C 43.3 °F /  6.3 °C 29.5in /  999.7hPa Calm   1mph /  1.6km/h 91% 0in /  0.0mm 0 W/m2
01:04 45.9 °F /  7.7 °C 43.3 °F /  6.3 °C 29.5in /  999.7hPa WNW 0.9mph /  1.4km/h 3mph /  4.8km/h 91% 0in /  0.0mm 0 W/m2
01:09 45.9 °F /  7.7 °C 43.3 °F /  6.3 °C 29.5in /  999.7hPa Calm     91% 0in /  0.0mm 0 W/m2
01:14 45.7 °F /  7.6 °C 43.2 °F /  6.2 °C 29.5in /  999.7hPa Calm     91% 0in /  0.0mm 0 W/m2
01:19 45.5 °F /  7.5 °C 43 °F /  6.1 °C 29.5in /  999.7hPa SW 2.9mph /  4.7km/h 9mph /  14.5km/h 91% 0in /  0.0mm 0 W/m2
01:24 45.5 °F /  7.5 °C 43 °F /  6.1 °C 29.5in /  999.7hPa Calm     91% 0in /  0.0mm 0 W/m2
01:29 45.5 °F /  7.5 °C 43 °F /  6.1 °C 29.5in /  999.3hPa Calm   5mph /  8km/h 91% 0in /  0.0mm 0 W/m2
01:34 45.3 °F /  7.4 °C 42.8 °F /  6 °C 29.5in /  999.3hPa Calm   9mph /  14.5km/h 91% 0in /  0.0mm 0 W/m2
01:39 45.1 °F /  7.3 °C 42.6 °F /  5.9 °C 29.5in /  999.3hPa Calm     91% 0in /  0.0mm 0 W/m2
01:44 45.1 °F /  7.3 °C 42.6 °F /  5.9 °C 29.5in /  999.7hPa Calm   9mph /  14.5km/h 91% 0.01in /  0.2mm 0 W/m2
01:49 45.1 °F /  7.3 °C 43 °F /  6.1 °C 29.5in /  999.3hPa Calm     92% 0.02in /  0.5mm 0 W/m2
01:54 45 °F /  7.2 °C 42.8 °F /  6 °C 29.5in /  999.3hPa Calm   5mph /  8km/h 92% 0.02in /  0.5mm 0 W/m2
01:59 45 °F /  7.2 °C 43 °F /  6.1 °C 29.5in /  999.3hPa Calm     93% 0.02in /  0.5mm 0 W/m2
02:04 45 °F /  7.2 °C 43 °F /  6.1 °C 29.5in /  999.3hPa Calm   5mph /  8km/h 93% 0.02in /  0.5mm 0 W/m2
02:09 45 °F /  7.2 °C 43 °F /  6.1 °C 29.5in /  999.3hPa Calm   2mph /  3.2km/h 93% 0.02in /  0.5mm 0 W/m2
02:14 45.1 °F /  7.3 °C 43 °F /  6.1 °C 29.5in /  999.7hPa Calm   9mph /  14.5km/h 92% 0.02in /  0.5mm 0 W/m2
02:19 45.1 °F /  7.3 °C 43 °F /  6.1 °C 29.5in /  999.3hPa Calm     92% 0.02in /  0.5mm 0 W/m2
02:25 45.1 °F /  7.3 °C 43 °F /  6.1 °C 29.5in /  999.3hPa Calm     92% 0.02in /  0.5mm 0 W/m2
02:30 45.1 °F /  7.3 °C 43 °F /  6.1 °C 29.5in /  999.3hPa Calm     92% 0.02in /  0.5mm 0 W/m2
02:35 45.1 °F /  7.3 °C 43 °F /  6.1 °C 29.5in /  999.7hPa Calm   11mph /  17.7km/h 92% 0.03in /  0.8mm 0 W/m2
02:40 45.1 °F /  7.3 °C 42.6 °F /  5.9 °C 29.5in /  999.7hPa Calm   4mph /  6.4km/h 91% 0.03in /  0.8mm 0 W/m2
02:45 45 °F /  7.2 °C 42.4 °F /  5.8 °C 29.5in /  999.7hPa Calm   1mph /  1.6km/h 91% 0.02in /  0.5mm 0 W/m2
02:50 45 °F /  7.2 °C 42.4 °F /  5.8 °C 29.5in /  999.3hPa Calm   8mph /  12.9km/h 91% 0.02in /  0.5mm 0 W/m2
02:55 45 °F /  7.2 °C 42.8 °F /  6 °C 29.5in /  999.3hPa NW 2mph /  3.2km/h 2mph /  3.2km/h 92% 0.01in /  0.2mm 0 W/m2
03:00 44.8 °F /  7.1 °C 42.6 °F /  5.9 °C 29.5in /  999.3hPa Calm   1mph /  1.6km/h 92% 0.01in /  0.2mm 0 W/m2
03:05 44.8 °F /  7.1 °C 42.6 °F /  5.9 °C 29.5in /  999.3hPa Calm   2mph /  3.2km/h 92% 0.01in /  0.2mm 0 W/m2
03:10 44.8 °F /  7.1 °C 42.6 °F /  5.9 °C 29.5in /  999.3hPa Calm     92% 0.01in /  0.2mm 0 W/m2
03:15 44.8 °F /  7.1 °C 42.6 °F /  5.9 °C 29.5in /  999.0hPa Calm     92% 0.01in /  0.2mm 0 W/m2
03:20 44.8 °F /  7.1 °C 42.6 °F /  5.9 °C 29.5in /  999.0hPa Calm     92% 0.01in /  0.2mm 0 W/m2
03:25 44.8 °F /  7.1 °C 42.6 °F /  5.9 °C 29.5in /  999.0hPa Calm     92% 0.01in /  0.2mm 0 W/m2
03:30 44.8 °F /  7.1 °C 42.6 °F /  5.9 °C 29.5in /  998.6hPa Calm     92% 0.01in /  0.2mm 0 W/m2
03:35 44.8 °F /  7.1 °C 42.6 °F /  5.9 °C 29.5in /  998.6hPa Calm     92% 0in /  0.0mm 0 W/m2
03:40 44.8 °F /  7.1 °C 42.6 °F /  5.9 °C 29.5in /  998.6hPa Calm     92% 0.01in /  0.2mm 0 W/m2
03:45 44.8 °F /  7.1 °C 42.8 °F /  6 °C 29.5in /  998.6hPa Calm   2mph /  3.2km/h 93% 0.01in /  0.2mm 0 W/m2
03:50 44.6 °F /  7 °C 42.6 °F /  5.9 °C 29.5in /  998.6hPa Calm     93% 0.01in /  0.2mm 0 W/m2
03:55 44.6 °F /  7 °C 42.6 °F /  5.9 °C 29.5in /  998.3hPa Calm   2mph /  3.2km/h 93% 0.01in /  0.2mm 0 W/m2
04:00 44.6 °F /  7 °C 42.6 °F /  5.9 °C 29.5in /  998.3hPa Calm     93% 0.01in /  0.2mm 0 W/m2
04:05 44.4 °F /  6.9 °C 42.4 °F /  5.8 °C 29.5in /  998.3hPa Calm     93% 0.01in /  0.2mm 0 W/m2
04:10 44.4 °F /  6.9 °C 42.4 °F /  5.8 °C 29.5in /  998.0hPa Calm     93% 0.01in /  0.2mm 0 W/m2
04:16 44.4 °F /  6.9 °C 42.4 °F /  5.8 °C 29.5in /  998.0hPa Calm     93% 0.01in /  0.2mm 0 W/m2
04:21 44.4 °F /  6.9 °C 42.4 °F /  5.8 °C 29.5in /  998.0hPa Calm     93% 0.01in /  0.2mm 0 W/m2
04:26 44.4 °F /  6.9 °C 42.4 °F /  5.8 °C 29.5in /  997.6hPa Calm     93% 0.01in /  0.2mm 0 W/m2
04:31 44.4 °F /  6.9 °C 42.4 °F /  5.8 °C 29.5in /  997.6hPa Calm   1mph /  1.6km/h 93% 0.01in /  0.2mm 0 W/m2
04:36 44.4 °F /  6.9 °C 42.4 °F /  5.8 °C 29.5in /  997.6hPa Calm   1mph /  1.6km/h 93% 0.01in /  0.2mm 0 W/m2
04:41 44.4 °F /  6.9 °C 42.3 °F /  5.7 °C 29.5in /  997.6hPa Calm   1mph /  1.6km/h 92% 0in /  0.0mm 0 W/m2
04:46 44.4 °F /  6.9 °C 42.3 °F /  5.7 °C 29.5in /  997.6hPa Calm     92% 0in /  0.0mm 0 W/m2
04:51 44.4 °F /  6.9 °C 42.3 °F /  5.7 °C 29.5in /  997.3hPa Calm     92% 0in /  0.0mm 0 W/m2
04:56 44.4 °F /  6.9 °C 42.3 °F /  5.7 °C 29.5in /  997.3hPa Calm     92% 0in /  0.0mm 0 W/m2
05:01 44.4 °F /  6.9 °C 42.3 °F /  5.7 °C 29.5in /  997.3hPa Calm     92% 0.01in /  0.2mm 0 W/m2
05:06 44.4 °F /  6.9 °C 42.3 °F /  5.7 °C 29.5in /  997.3hPa Calm     92% 0.02in /  0.5mm 0 W/m2
05:11 44.4 °F /  6.9 °C 42.3 °F /  5.7 °C 29.4in /  997.0hPa Calm     92% 0.02in /  0.5mm 0 W/m2
05:16 44.4 °F /  6.9 °C 42.3 °F /  5.7 °C 29.4in /  997.0hPa Calm   1mph /  1.6km/h 92% 0.02in /  0.5mm 0 W/m2
05:21 44.2 °F /  6.8 °C 42.3 °F /  5.7 °C 29.4in /  997.0hPa Calm   1mph /  1.6km/h 93% 0.02in /  0.5mm 0 W/m2
05:26 44.2 °F /  6.8 °C 42.3 °F /  5.7 °C 29.4in /  996.6hPa Calm     93% 0.02in /  0.5mm 0 W/m2
05:31 44.2 °F /  6.8 °C 42.3 °F /  5.7 °C 29.4in /  996.6hPa Calm     93% 0.02in /  0.5mm 0 W/m2
05:36 44.2 °F /  6.8 °C 42.3 °F /  5.7 °C 29.4in /  996.6hPa Calm   2mph /  3.2km/h 93% 0.02in /  0.5mm 0 W/m2
05:41 44.2 °F /  6.8 °C 42.3 °F /  5.7 °C 29.4in /  996.3hPa Calm     93% 0.02in /  0.5mm 0 W/m2
05:46 44.2 °F /  6.8 °C 42.1 °F /  5.6 °C 29.4in /  996.3hPa Calm   3mph /  4.8km/h 92% 0.02in /  0.5mm 0 W/m2
05:51 44.4 °F /  6.9 °C 42.3 °F /  5.7 °C 29.4in /  995.9hPa Calm   1mph /  1.6km/h 92% 0.02in /  0.5mm 0 W/m2
05:56 44.4 °F /  6.9 °C 42.3 °F /  5.7 °C 29.4in /  995.9hPa Calm   3mph /  4.8km/h 92% 0.02in /  0.5mm 0 W/m2
06:01 44.4 °F /  6.9 °C 42.3 °F /  5.7 °C 29.4in /  995.9hPa Calm   6mph /  9.7km/h 92% 0.02in /  0.5mm 0 W/m2
06:06 44.2 °F /  6.8 °C 42.1 °F /  5.6 °C 29.4in /  995.9hPa Calm   1mph /  1.6km/h 92% 0.01in /  0.2mm 0 W/m2
06:11 44.2 °F /  6.8 °C 42.1 °F /  5.6 °C 29.4in /  995.6hPa Calm   6mph /  9.7km/h 92% 0.01in /  0.2mm 0 W/m2
06:16 44.2 °F /  6.8 °C 42.1 °F /  5.6 °C 29.4in /  995.9hPa Calm   2mph /  3.2km/h 92% 0.01in /  0.2mm 0 W/m2
06:21 44.2 °F /  6.8 °C 41.7 °F /  5.4 °C 29.4in /  995.9hPa Calm   7mph /  11.3km/h 91% 0.01in /  0.2mm 0 W/m2
06:26 44.2 °F /  6.8 °C 41.7 °F /  5.4 °C 29.4in /  995.9hPa Calm     91% 0.01in /  0.2mm 0 W/m2
06:31 44.1 °F /  6.7 °C 41.5 °F /  5.3 °C 29.4in /  995.6hPa Calm   4mph /  6.4km/h 91% 0.01in /  0.2mm 0 W/m2
06:36 43.9 °F /  6.6 °C 41.4 °F /  5.2 °C 29.4in /  995.6hPa Calm     91% 0.01in /  0.2mm 0 W/m2
06:41 43.7 °F /  6.5 °C 41 °F /  5 °C 29.4in /  995.6hPa Calm   4mph /  6.4km/h 90% 0.01in /  0.2mm 0 W/m2
06:47 43.5 °F /  6.4 °C 41 °F /  5 °C 29.4in /  995.3hPa Calm   1mph /  1.6km/h 91% 0in /  0.0mm 0 W/m2
06:52 43.5 °F /  6.4 °C 41 °F /  5 °C 29.4in /  995.3hPa Calm   1mph /  1.6km/h 91% 0in /  0.0mm 0 W/m2
06:57 43.5 °F /  6.4 °C 41 °F /  5 °C 29.4in /  995.3hPa Calm     91% 0in /  0.0mm 0 W/m2
07:02 43.5 °F /  6.4 °C 41 °F /  5 °C 29.4in /  995.3hPa Calm   1mph /  1.6km/h 91% 0in /  0.0mm 0 W/m2
07:07 43.5 °F /  6.4 °C 41 °F /  5 °C 29.4in /  995.3hPa Calm     91% 0.01in /  0.2mm 0 W/m2
07:12 43.3 °F /  6.3 °C 41.2 °F /  5.1 °C 29.4in /  995.6hPa Calm     92% 0.01in /  0.2mm 0 W/m2
07:17 43.3 °F /  6.3 °C 41.2 °F /  5.1 °C 29.4in /  995.6hPa Calm   2mph /  3.2km/h 92% 0.01in /  0.2mm 0 W/m2
07:22 43.3 °F /  6.3 °C 41.2 °F /  5.1 °C 29.4in /  995.6hPa Calm   11mph /  17.7km/h 92% 0.02in /  0.5mm 0 W/m2
07:27 43.3 °F /  6.3 °C 41.2 °F /  5.1 °C 29.4in /  995.3hPa Calm   1mph /  1.6km/h 92% 0.02in /  0.5mm 0 W/m2
07:32 43.5 °F /  6.4 °C 41.4 °F /  5.2 °C 29.4in /  995.6hPa Calm   7mph /  11.3km/h 92% 0.02in /  0.5mm 0 W/m2
07:37 43.5 °F /  6.4 °C 41.4 °F /  5.2 °C 29.4in /  995.6hPa Calm     92% 0.02in /  0.5mm 0 W/m2
07:42 43.5 °F /  6.4 °C 41.4 °F /  5.2 °C 29.4in /  995.6hPa Calm   1mph /  1.6km/h 92% 0.02in /  0.5mm 0 W/m2
07:47 43.5 °F /  6.4 °C 41 °F /  5 °C 29.4in /  995.6hPa Calm     91% 0.02in /  0.5mm 0 W/m2
07:52 43.3 °F /  6.3 °C 40.6 °F /  4.8 °C 29.4in /  995.6hPa Calm   12mph /  19.3km/h 90% 0.02in /  0.5mm 0 W/m2
07:57 43.3 °F /  6.3 °C 40.6 °F /  4.8 °C 29.4in /  995.9hPa Calm     90% 0.02in /  0.5mm 0 W/m2
08:02 43.2 °F /  6.2 °C 40.1 °F /  4.5 °C 29.4in /  995.9hPa Calm   12mph /  19.3km/h 89% 0.02in /  0.5mm 0 W/m2
08:07 43 °F /  6.1 °C 39.9 °F /  4.4 °C 29.4in /  995.9hPa Calm   20mph /  32.2km/h 89% 0.01in /  0.2mm 0 W/m2
08:12 43.2 °F /  6.2 °C 40.1 °F /  4.5 °C 29.4in /  995.9hPa Calm     89% 0.01in /  0.2mm 0 W/m2
08:17 43 °F /  6.1 °C 39.9 °F /  4.4 °C 29.4in /  995.9hPa Calm   4mph /  6.4km/h 89% 0.01in /  0.2mm 0 W/m2
08:22 43 °F /  6.1 °C 39.9 °F /  4.4 °C 29.4in /  995.9hPa Calm   4mph /  6.4km/h 89% 0in /  0.0mm 0 W/m2
08:27 43 °F /  6.1 °C 39.7 °F /  4.3 °C 29.4in /  995.9hPa Calm   14mph /  22.5km/h 88% 0in /  0.0mm 5 W/m2
08:32 43 °F /  6.1 °C 39.7 °F /  4.3 °C 29.4in /  995.9hPa WNW 2.9mph /  4.7km/h 3mph /  4.8km/h 88% 0in /  0.0mm 7 W/m2
08:37 42.6 °F /  5.9 °C 39 °F /  3.9 °C 29.4in /  995.9hPa Calm     87% 0in /  0.0mm 7 W/m2
08:42 42.6 °F /  5.9 °C 39 °F /  3.9 °C 29.4in /  996.3hPa Calm   16mph /  25.7km/h 87% 0in /  0.0mm 9 W/m2
08:47 42.4 °F /  5.8 °C 38.8 °F /  3.8 °C 29.4in /  996.3hPa Calm     87% 0in /  0.0mm 18 W/m2
08:52 42.4 °F /  5.8 °C 38.8 °F /  3.8 °C 29.4in /  996.3hPa Calm   7mph /  11.3km/h 87% 0in /  0.0mm 33 W/m2
08:57 42.3 °F /  5.7 °C 38.7 °F /  3.7 °C 29.4in /  996.6hPa Calm     87% 0in /  0.0mm 35 W/m2
09:02 42.3 °F /  5.7 °C 38.7 °F /  3.7 °C 29.4in /  997.0hPa Calm   2mph /  3.2km/h 87% 0in /  0.0mm 28 W/m2
09:07 42.3 °F /  5.7 °C 38.3 °F /  3.5 °C 29.4in /  997.0hPa Calm     86% 0in /  0.0mm 42 W/m2
09:12 42.4 °F /  5.8 °C 38.5 °F /  3.6 °C 29.5in /  997.3hPa Calm   13mph /  20.9km/h 86% 0in /  0.0mm 47 W/m2
09:17 42.4 °F /  5.8 °C 38.3 °F /  3.5 °C 29.4in /  997.0hPa Calm   16mph /  25.7km/h 85% 0in /  0.0mm 40 W/m2
09:22 42.4 °F /  5.8 °C 38.3 °F /  3.5 °C 29.5in /  997.3hPa Calm   19mph /  30.6km/h 85% 0in /  0.0mm 67 W/m2
09:27 42.4 °F /  5.8 °C 38.3 °F /  3.5 °C 29.5in /  997.3hPa WNW 0.9mph /  1.4km/h 1mph /  1.6km/h 85% 0in /  0.0mm 104 W/m2
09:32 42.4 °F /  5.8 °C 38.3 °F /  3.5 °C 29.5in /  997.3hPa Calm   1mph /  1.6km/h 85% 0in /  0.0mm 84 W/m2
09:37 42.4 °F /  5.8 °C 38.3 °F /  3.5 °C 29.4in /  997.0hPa Calm     85% 0in /  0.0mm 30 W/m2
09:42 42.4 °F /  5.8 °C 38.3 °F /  3.5 °C 29.5in /  997.3hPa Calm   20mph /  32.2km/h 85% 0in /  0.0mm 19 W/m2
09:47 41.9 °F /  5.5 °C 37.8 °F /  3.2 °C 29.5in /  997.6hPa WSW 0.9mph /  1.4km/h 15mph /  24.1km/h 85% 0.01in /  0.2mm 7 W/m2
09:52 41.2 °F /  5.1 °C 37.6 °F /  3.1 °C 29.5in /  998.3hPa WNW 29.1mph /  46.8km/h 29mph /  46.7km/h 87% 0.02in /  0.5mm 0 W/m2
09:57 39 °F /  3.9 °C 35.8 °F /  2.1 °C 29.5in /  998.0hPa Calm     88% 0.05in /  1.3mm 14 W/m2
10:02 38.7 °F /  3.7 °C 36.3 °F /  2.4 °C 29.5in /  998.3hPa West 13mph /  20.9km/h 29mph /  46.7km/h 91% 0.05in /  1.3mm 40 W/m2
10:07 38.8 °F /  3.8 °C 36.5 °F /  2.5 °C 29.5in /  998.0hPa Calm     91% 0.05in /  1.3mm 19 W/m2
10:12 39.2 °F /  4 °C 36.9 °F /  2.7 °C 29.5in /  998.3hPa Calm   23mph /  37km/h 91% 0.05in /  1.3mm 7 W/m2
10:17 39.4 °F /  4.1 °C 36.7 °F /  2.6 °C 29.5in /  998.3hPa Calm     90% 0.05in /  1.3mm 16 W/m2
10:23 39.4 °F /  4.1 °C 36.7 °F /  2.6 °C 29.5in /  998.6hPa Calm     90% 0.06in /  1.5mm 9 W/m2
10:28 39.2 °F /  4 °C 36.5 °F /  2.5 °C 29.5in /  998.6hPa Calm   22mph /  35.4km/h 90% 0.06in /  1.5mm 0 W/m2
10:33 38.7 °F /  3.7 °C 36 °F /  2.2 °C 29.5in /  998.6hPa SW 13mph /  20.9km/h 13mph /  20.9km/h 90% 0.08in /  2.0mm 21 W/m2
10:38 38.3 °F /  3.5 °C 36 °F /  2.2 °C 29.5in /  998.6hPa Calm     91% 0.08in /  2.0mm 32 W/m2
10:43 38.1 °F /  3.4 °C 35.8 °F /  2.1 °C 29.5in /  999.0hPa Calm   1mph /  1.6km/h 91% 0.07in /  1.8mm 33 W/m2
10:48 38.5 °F /  3.6 °C 36.1 °F /  2.3 °C 29.5in /  999.0hPa Calm   19mph /  30.6km/h 91% 0.07in /  1.8mm 44 W/m2
10:53 38.7 °F /  3.7 °C 36.3 °F /  2.4 °C 29.5in /  999.3hPa Calm   9mph /  14.5km/h 91% 0.05in /  1.3mm 40 W/m2
10:58 38.8 °F /  3.8 °C 36.1 °F /  2.3 °C 29.5in /  999.3hPa Calm     90% 0.03in /  0.8mm 42 W/m2
11:03 38.8 °F /  3.8 °C 36.1 °F /  2.3 °C 29.5in /  999.3hPa Calm     90% 0.03in /  0.8mm 95 W/m2
11:08 39 °F /  3.9 °C 36.3 °F /  2.4 °C 29.5in /  999.3hPa Calm     90% 0.03in /  0.8mm 100 W/m2
11:13 39.2 °F /  4 °C 36.5 °F /  2.5 °C 29.5in /  999.3hPa Calm     90% 0.03in /  0.8mm 134 W/m2
11:18 39.6 °F /  4.2 °C 37.2 °F /  2.9 °C 29.5in /  999.3hPa Calm     91% 0.03in /  0.8mm 128 W/m2
11:23 39.6 °F /  4.2 °C 37.2 °F /  2.9 °C 29.5in /  999.7hPa Calm   1mph /  1.6km/h 91% 0.02in /  0.5mm 104 W/m2
11:28 39.7 °F /  4.3 °C 37 °F /  2.8 °C 29.5in /  999.7hPa Calm     90% 0.02in /  0.5mm 91 W/m2
11:33 39.9 °F /  4.4 °C 37.2 °F /  2.9 °C 29.5in /  999.7hPa Calm     90% 0in /  0.0mm 118 W/m2
11:38 40.3 °F /  4.6 °C 37.6 °F /  3.1 °C 29.5in /  999.3hPa Calm     90% 0in /  0.0mm 155 W/m2
11:43 40.6 °F /  4.8 °C 37.9 °F /  3.3 °C 29.5in /  999.3hPa Calm     90% 0in /  0.0mm 120 W/m2
11:48 41 °F /  5 °C 38.3 °F /  3.5 °C 29.5in /  999.3hPa Calm     90% 0in /  0.0mm 125 W/m2
11:53 41.4 °F /  5.2 °C 38.3 °F /  3.5 °C 29.5in /  999.7hPa Calm   1mph /  1.6km/h 89% 0in /  0.0mm 40 W/m2
11:58 41.4 °F /  5.2 °C 38.1 °F /  3.4 °C 29.5in /  999.7hPa Calm     88% 0in /  0.0mm 113 W/m2
12:03 41.2 °F /  5.1 °C 37.6 °F /  3.1 °C 29.5in /  999.7hPa Calm   3mph /  4.8km/h 87% 0.01in /  0.2mm 65 W/m2
12:08 40.8 °F /  4.9 °C 37.2 °F /  2.9 °C 29.5in /  999.7hPa Calm   1mph /  1.6km/h 87% 0.01in /  0.2mm 151 W/m2
12:13 40.3 °F /  4.6 °C 36.5 °F /  2.5 °C 29.5in /  999.7hPa Calm   3mph /  4.8km/h 86% 0.01in /  0.2mm 98 W/m2
12:18 39.9 °F /  4.4 °C 36.1 °F /  2.3 °C 29.5in /  1000.0hPa Calm   1mph /  1.6km/h 86% 0.01in /  0.2mm 76 W/m2
12:23 39.7 °F /  4.3 °C 36.1 °F /  2.3 °C 29.5in /  1000.0hPa Calm     87% 0.01in /  0.2mm 67 W/m2
12:28 39.6 °F /  4.2 °C 36.3 °F /  2.4 °C 29.5in /  1000.3hPa Calm   1mph /  1.6km/h 88% 0.01in /  0.2mm 47 W/m2
12:33 39.4 °F /  4.1 °C 36.1 °F /  2.3 °C 29.5in /  1000.0hPa Calm     88% 0.01in /  0.2mm 51 W/m2
12:38 39 °F /  3.9 °C 36.1 °F /  2.3 °C 29.5in /  1000.3hPa Calm   1mph /  1.6km/h 89% 0.01in /  0.2mm 72 W/m2
12:43 38.8 °F /  3.8 °C 36.1 °F /  2.3 °C 29.5in /  1000.3hPa Calm     90% 0.01in /  0.2mm 70 W/m2
12:48 38.8 °F /  3.8 °C 36 °F /  2.2 °C 29.5in /  1000.3hPa West 15mph /  24.1km/h 20mph /  32.2km/h 89% 0.01in /  0.2mm 53 W/m2
12:53 39.2 °F /  4 °C 36.3 °F /  2.4 °C 29.5in /  1000.3hPa Calm   4mph /  6.4km/h 89% 0.01in /  0.2mm 69 W/m2
12:58 39.4 °F /  4.1 °C 36.1 °F /  2.3 °C 29.6in /  1000.7hPa Calm   20mph /  32.2km/h 88% 0.01in /  0.2mm 65 W/m2
13:03 39.6 °F /  4.2 °C 36.3 °F /  2.4 °C 29.6in /  1000.7hPa Calm     88% 0in /  0.0mm 81 W/m2
13:08 39.7 °F /  4.3 °C 36.1 °F /  2.3 °C 29.6in /  1000.7hPa Calm   8mph /  12.9km/h 87% 0in /  0.0mm 104 W/m2
13:13 39.7 °F /  4.3 °C 36.1 °F /  2.3 °C 29.6in /  1000.7hPa Calm     87% 0in /  0.0mm 132 W/m2
13:18 39.7 °F /  4.3 °C 36.1 °F /  2.3 °C 29.6in /  1000.7hPa Calm     87% 0in /  0.0mm 79 W/m2
13:23 39.9 °F /  4.4 °C 36.3 °F /  2.4 °C 29.6in /  1000.7hPa Calm   21mph /  33.8km/h 87% 0in /  0.0mm 35 W/m2
13:28 39.6 °F /  4.2 °C 36 °F /  2.2 °C 29.6in /  1000.7hPa Calm     87% 0.01in /  0.2mm 72 W/m2
13:33 39.6 °F /  4.2 °C 36.5 °F /  2.5 °C 29.6in /  1001.0hPa Calm   21mph /  33.8km/h 89% 0.01in /  0.2mm 58 W/m2
13:38 39.6 °F /  4.2 °C 36.5 °F /  2.5 °C 29.6in /  1001.0hPa Calm   1mph /  1.6km/h 89% 0.01in /  0.2mm 39 W/m2
13:43 39.2 °F /  4 °C 36.3 °F /  2.4 °C 29.6in /  1001.0hPa Calm   9mph /  14.5km/h 89% 0.01in /  0.2mm 35 W/m2
13:48 38.8 °F /  3.8 °C 36 °F /  2.2 °C 29.6in /  1001.0hPa Calm     89% 0.01in /  0.2mm 56 W/m2
13:53 38.8 °F /  3.8 °C 36.1 °F /  2.3 °C 29.6in /  1001.4hPa Calm   11mph /  17.7km/h 90% 0.01in /  0.2mm 130 W/m2
13:58 39 °F /  3.9 °C 36.3 °F /  2.4 °C 29.6in /  1001.4hPa Calm   11mph /  17.7km/h 90% 0.01in /  0.2mm 121 W/m2
14:03 39.4 °F /  4.1 °C 36.7 °F /  2.6 °C 29.6in /  1001.4hPa Calm   1mph /  1.6km/h 90% 0.01in /  0.2mm 125 W/m2
14:08 39.6 °F /  4.2 °C 37.2 °F /  2.9 °C 29.6in /  1001.4hPa Calm   10mph /  16.1km/h 91% 0.01in /  0.2mm 62 W/m2
14:13 39.6 °F /  4.2 °C 36.9 °F /  2.7 °C 29.6in /  1001.4hPa Calm   1mph /  1.6km/h 90% 0.01in /  0.2mm 44 W/m2
14:18 39.6 °F /  4.2 °C 36.9 °F /  2.7 °C 29.6in /  1001.4hPa Calm   3mph /  4.8km/h 90% 0.01in /  0.2mm 130 W/m2
14:23 39.7 °F /  4.3 °C 37 °F /  2.8 °C 29.6in /  1001.4hPa Calm     90% 0.01in /  0.2mm 105 W/m2
14:28 39.9 °F /  4.4 °C 37.2 °F /  2.9 °C 29.6in /  1001.4hPa Calm     90% 0in /  0.0mm 148 W/m2
14:33 40.1 °F /  4.5 °C 37 °F /  2.8 °C 29.6in /  1001.4hPa Calm     89% 0in /  0.0mm 67 W/m2
14:38 40.3 °F /  4.6 °C 37.2 °F /  2.9 °C 29.6in /  1001.4hPa Calm     89% 0in /  0.0mm 79 W/m2
14:43 39.9 °F /  4.4 °C 36.9 °F /  2.7 °C 29.6in /  1001.7hPa Calm     89% 0.01in /  0.2mm 98 W/m2
14:49 39.7 °F /  4.3 °C 37 °F /  2.8 °C 29.6in /  1001.4hPa Calm     90% 0.01in /  0.2mm 72 W/m2
14:54 39.9 °F /  4.4 °C 37.2 °F /  2.9 °C 29.6in /  1001.4hPa Calm     90% 0.02in /  0.5mm 107 W/m2
14:59 40.3 °F /  4.6 °C 37.6 °F /  3.1 °C 29.6in /  1001.4hPa Calm     90% 0.02in /  0.5mm 76 W/m2
15:04 40.6 °F /  4.8 °C 37 °F /  2.8 °C 29.6in /  1002.0hPa Calm   20mph /  32.2km/h 87% 0.02in /  0.5mm 176 W/m2
15:09 41.4 °F /  5.2 °C 36.9 °F /  2.7 °C 29.6in /  1002.0hPa Calm     84% 0.02in /  0.5mm 137 W/m2
15:14 41.5 °F /  5.3 °C 36.7 °F /  2.6 °C 29.6in /  1002.0hPa Calm   19mph /  30.6km/h 83% 0.02in /  0.5mm 65 W/m2
15:19 40.6 °F /  4.8 °C 35.6 °F /  2 °C 29.6in /  1002.7hPa Calm   1mph /  1.6km/h 82% 0.02in /  0.5mm 16 W/m2
15:24 37.8 °F /  3.2 °C 34 °F /  1.1 °C 29.6in /  1002.7hPa Calm   23mph /  37km/h 86% 0.02in /  0.5mm 16 W/m2
15:29 36.3 °F /  2.4 °C 33.4 °F /  0.8 °C 29.6in /  1003.0hPa Calm   8mph /  12.9km/h 89% 0.02in /  0.5mm 12 W/m2
15:34 35.4 °F /  1.9 °C 33.1 °F /  0.6 °C 29.6in /  1003.0hPa West 16.1mph /  25.9km/h 23mph /  37km/h 91% 0.02in /  0.5mm 46 W/m2
15:39 35.2 °F /  1.8 °C 33.1 °F /  0.6 °C 29.6in /  1003.0hPa Calm     92% 0.01in /  0.2mm 51 W/m2
15:44 35.2 °F /  1.8 °C 33.1 °F /  0.6 °C 29.6in /  1003.0hPa Calm   20mph /  32.2km/h 92% 0.02in /  0.5mm 63 W/m2
15:49 35.4 °F /  1.9 °C 33.6 °F /  0.9 °C 29.6in /  1003.0hPa Calm     93% 0.02in /  0.5mm 42 W/m2
15:54 35.6 °F /  2 °C 33.8 °F /  1 °C 29.6in /  1003.0hPa Calm   7mph /  11.3km/h 93% 0.02in /  0.5mm 11 W/m2
15:59 35.4 °F /  1.9 °C 33.6 °F /  0.9 °C 29.6in /  1003.4hPa Calm     93% 0.02in /  0.5mm 0 W/m2
16:04 35.2 °F /  1.8 °C 33.4 °F /  0.8 °C 29.6in /  1003.0hPa Calm   14mph /  22.5km/h 93% 0.02in /  0.5mm 5 W/m2
16:09 35.4 °F /  1.9 °C 33.6 °F /  0.9 °C 29.6in /  1003.0hPa Calm   16mph /  25.7km/h 93% 0.03in /  0.8mm 9 W/m2
16:14 35.8 °F /  2.1 °C 34 °F /  1.1 °C 29.6in /  1003.0hPa Calm   12mph /  19.3km/h 93% 0.03in /  0.8mm 25 W/m2
16:19 36 °F /  2.2 °C 33.8 °F /  1 °C 29.6in /  1003.0hPa Calm   2mph /  3.2km/h 92% 0.04in /  1.0mm 46 W/m2
16:24 36.3 °F /  2.4 °C 34.2 °F /  1.2 °C 29.6in /  1003.0hPa Calm     92% 0.04in /  1.0mm 63 W/m2
16:29 36.7 °F /  2.6 °C 34.3 °F /  1.3 °C 29.6in /  1003.0hPa Calm   1mph /  1.6km/h 91% 0.05in /  1.3mm 53 W/m2
16:34 36.7 °F /  2.6 °C 34 °F /  1.1 °C 29.6in /  1003.0hPa Calm   3mph /  4.8km/h 90% 0.05in /  1.3mm 32 W/m2
16:39 36.9 °F /  2.7 °C 34.2 °F /  1.2 °C 29.6in /  1003.0hPa Calm     90% 0.05in /  1.3mm 18 W/m2
16:44 36.9 °F /  2.7 °C 34.2 °F /  1.2 °C 29.6in /  1003.0hPa Calm     90% 0.04in /  1.0mm 16 W/m2
16:49 36.9 °F /  2.7 °C 34.2 °F /  1.2 °C 29.6in /  1003.4hPa Calm     90% 0.03in /  0.8mm 14 W/m2
16:54 36.9 °F /  2.7 °C 34.2 °F /  1.2 °C 29.6in /  1003.4hPa Calm     90% 0.03in /  0.8mm 12 W/m2
16:59 36.7 °F /  2.6 °C 34 °F /  1.1 °C 29.6in /  1003.4hPa Calm     90% 0.02in /  0.5mm 12 W/m2
17:04 36.7 °F /  2.6 °C 34 °F /  1.1 °C 29.6in /  1003.4hPa Calm     90% 0.02in /  0.5mm 9 W/m2
17:09 36.7 °F /  2.6 °C 34.3 °F /  1.3 °C 29.6in /  1003.4hPa Calm     91% 0.02in /  0.5mm 5 W/m2
17:15 36.7 °F /  2.6 °C 34.3 °F /  1.3 °C 29.6in /  1003.4hPa Calm     91% 0.01in /  0.2mm 5 W/m2
17:20 36.7 °F /  2.6 °C 34.3 °F /  1.3 °C 29.6in /  1003.7hPa Calm     91% 0.01in /  0.2mm 0 W/m2
17:25 36.7 °F /  2.6 °C 34.3 °F /  1.3 °C 29.6in /  1003.4hPa Calm     91% 0.01in /  0.2mm 0 W/m2
17:30 36.7 °F /  2.6 °C 34.3 °F /  1.3 °C 29.6in /  1003.4hPa Calm     91% 0in /  0.0mm 0 W/m2
17:35 36.7 °F /  2.6 °C 34.3 °F /  1.3 °C 29.6in /  1003.7hPa Calm     91% 0in /  0.0mm 0 W/m2
17:40 36.7 °F /  2.6 °C 34.3 °F /  1.3 °C 29.6in /  1003.7hPa Calm     91% 0in /  0.0mm 0 W/m2
17:45 36.7 °F /  2.6 °C 34.3 °F /  1.3 °C 29.6in /  1003.7hPa Calm     91% 0in /  0.0mm 0 W/m2
17:50 36.9 °F /  2.7 °C 34.5 °F /  1.4 °C 29.7in /  1004.1hPa Calm     91% 0in /  0.0mm 0 W/m2
17:55 37 °F /  2.8 °C 34.3 °F /  1.3 °C 29.7in /  1004.1hPa Calm     90% 0.01in /  0.2mm 0 W/m2
18:00 37 °F /  2.8 °C 34.3 °F /  1.3 °C 29.7in /  1004.1hPa Calm     90% 0.01in /  0.2mm 0 W/m2
18:05 37 °F /  2.8 °C 34.3 °F /  1.3 °C 29.7in /  1004.1hPa Calm     90% 0.01in /  0.2mm 0 W/m2
18:10 37 °F /  2.8 °C 34.3 °F /  1.3 °C 29.7in /  1004.4hPa Calm     90% 0.01in /  0.2mm 0 W/m2
18:15 37 °F /  2.8 °C 34.2 °F /  1.2 °C 29.7in /  1004.4hPa Calm     89% 0.01in /  0.2mm 0 W/m2
18:20 37 °F /  2.8 °C 34.3 °F /  1.3 °C 29.7in /  1004.4hPa Calm     90% 0.01in /  0.2mm 0 W/m2
18:25 37 °F /  2.8 °C 34.3 °F /  1.3 °C 29.7in /  1004.4hPa Calm     90% 0.01in /  0.2mm 0 W/m2
18:30 36.9 °F /  2.7 °C 34.2 °F /  1.2 °C 29.7in /  1004.7hPa Calm     90% 0.01in /  0.2mm 0 W/m2
18:35 36.9 °F /  2.7 °C 34.2 °F /  1.2 °C 29.7in /  1004.4hPa Calm     90% 0.01in /  0.2mm 0 W/m2
18:40 36.9 °F /  2.7 °C 34.2 °F /  1.2 °C 29.7in /  1004.4hPa Calm     90% 0.01in /  0.2mm 0 W/m2
18:45 37 °F /  2.8 °C 34.3 °F /  1.3 °C 29.7in /  1004.4hPa Calm     90% 0.01in /  0.2mm 0 W/m2
18:50 37 °F /  2.8 °C 34.3 °F /  1.3 °C 29.7in /  1004.4hPa Calm     90% 0.01in /  0.2mm 0 W/m2
18:55 37 °F /  2.8 °C 34.2 °F /  1.2 °C 29.7in /  1004.7hPa Calm     89% 0in /  0.0mm 0 W/m2
19:00 37.2 °F /  2.9 °C 34.3 °F /  1.3 °C 29.7in /  1004.7hPa Calm     89% 0in /  0.0mm 0 W/m2
19:05 37.2 °F /  2.9 °C 34.3 °F /  1.3 °C 29.7in /  1004.7hPa Calm     89% 0in /  0.0mm 0 W/m2
19:10 37 °F /  2.8 °C 34.2 °F /  1.2 °C 29.7in /  1004.7hPa Calm     89% 0in /  0.0mm 0 W/m2
19:15 37 °F /  2.8 °C 34.2 °F /  1.2 °C 29.7in /  1004.4hPa Calm     89% 0in /  0.0mm 0 W/m2
19:20 37 °F /  2.8 °C 34.3 °F /  1.3 °C 29.7in /  1004.4hPa Calm     90% 0in /  0.0mm 0 W/m2
19:25 37 °F /  2.8 °C 34.3 °F /  1.3 °C 29.7in /  1004.4hPa Calm     90% 0in /  0.0mm 0 W/m2
19:30 36.9 °F /  2.7 °C 34.2 °F /  1.2 °C 29.7in /  1004.4hPa Calm     90% 0in /  0.0mm 0 W/m2
19:35 36.9 °F /  2.7 °C 34.2 °F /  1.2 °C 29.7in /  1004.4hPa Calm     90% 0in /  0.0mm 0 W/m2
19:40 36.9 °F /  2.7 °C 34.2 °F /  1.2 °C 29.7in /  1004.1hPa Calm     90% 0in /  0.0mm 0 W/m2
19:45 36.9 °F /  2.7 °C 34.2 °F /  1.2 °C 29.7in /  1004.4hPa Calm     90% 0in /  0.0mm 0 W/m2
19:50 36.9 °F /  2.7 °C 34.5 °F /  1.4 °C 29.7in /  1004.4hPa Calm     91% 0in /  0.0mm 0 W/m2
19:55 36.9 °F /  2.7 °C 34.5 °F /  1.4 °C 29.7in /  1004.4hPa Calm   3mph /  4.8km/h 91% 0in /  0.0mm 0 W/m2
20:00 36.9 °F /  2.7 °C 34.5 °F /  1.4 °C 29.7in /  1004.4hPa Calm     91% 0in /  0.0mm 0 W/m2
20:05 37 °F /  2.8 °C 34.7 °F /  1.5 °C 29.7in /  1004.4hPa Calm     91% 0in /  0.0mm 0 W/m2
20:10 37 °F /  2.8 °C 34.3 °F /  1.3 °C 29.7in /  1004.1hPa Calm     90% 0in /  0.0mm 0 W/m2
20:15 37 °F /  2.8 °C 34.7 °F /  1.5 °C 29.7in /  1004.1hPa Calm     91% 0in /  0.0mm 0 W/m2
20:20 37.2 °F /  2.9 °C 34.9 °F /  1.6 °C 29.7in /  1004.1hPa Calm     91% 0in /  0.0mm 0 W/m2
20:25 37.4 °F /  3 °C 34.7 °F /  1.5 °C 29.7in /  1004.1hPa Calm     90% 0in /  0.0mm 0 W/m2
20:30 37.2 °F /  2.9 °C 34.5 °F /  1.4 °C 29.6in /  1003.7hPa Calm     90% 0in /  0.0mm 0 W/m2
20:35 37.2 °F /  2.9 °C 34.5 °F /  1.4 °C 29.6in /  1003.7hPa Calm     90% 0in /  0.0mm 0 W/m2
20:40 37.4 °F /  3 °C 34.7 °F /  1.5 °C 29.6in /  1003.7hPa Calm     90% 0in /  0.0mm 0 W/m2
20:45 37.6 °F /  3.1 °C 34.9 °F /  1.6 °C 29.6in /  1003.7hPa Calm     90% 0in /  0.0mm 0 W/m2
20:50 37.6 °F /  3.1 °C 34.9 °F /  1.6 °C 29.6in /  1003.4hPa Calm     90% 0in /  0.0mm 0 W/m2
20:55 37.6 °F /  3.1 °C 34.9 °F /  1.6 °C 29.6in /  1003.4hPa Calm     90% 0in /  0.0mm 0 W/m2
21:00 37.8 °F /  3.2 °C 35.1 °F /  1.7 °C 29.6in /  1003.4hPa Calm     90% 0in /  0.0mm 0 W/m2
21:05 37.8 °F /  3.2 °C 35.1 °F /  1.7 °C 29.6in /  1003.4hPa Calm     90% 0in /  0.0mm 0 W/m2
21:10 37.9 °F /  3.3 °C 35.2 °F /  1.8 °C 29.6in /  1003.0hPa Calm     90% 0in /  0.0mm 0 W/m2
21:15 38.1 °F /  3.4 °C 35.4 °F /  1.9 °C 29.6in /  1003.0hPa Calm     90% 0in /  0.0mm 0 W/m2
21:20 38.5 °F /  3.6 °C 35.8 °F /  2.1 °C 29.6in /  1003.0hPa Calm   1mph /  1.6km/h 90% 0.01in /  0.2mm 0 W/m2
21:25 38.7 °F /  3.7 °C 36 °F /  2.2 °C 29.6in /  1003.0hPa Calm     90% 0.01in /  0.2mm 0 W/m2
21:30 38.7 °F /  3.7 °C 36 °F /  2.2 °C 29.6in /  1002.7hPa Calm   1mph /  1.6km/h 90% 0.01in /  0.2mm 0 W/m2
21:35 38.7 °F /  3.7 °C 36 °F /  2.2 °C 29.6in /  1002.7hPa Calm     90% 0.01in /  0.2mm 0 W/m2
21:40 38.7 °F /  3.7 °C 36 °F /  2.2 °C 29.6in /  1002.7hPa Calm     90% 0.01in /  0.2mm 0 W/m2
21:45 38.8 °F /  3.8 °C 36.5 °F /  2.5 °C 29.6in /  1002.7hPa Calm     91% 0.01in /  0.2mm 0 W/m2
21:50 38.8 °F /  3.8 °C 36.5 °F /  2.5 °C 29.6in /  1002.7hPa Calm     91% 0.01in /  0.2mm 0 W/m2
21:55 38.8 °F /  3.8 °C 36.5 °F /  2.5 °C 29.6in /  1002.7hPa Calm     91% 0.02in /  0.5mm 0 W/m2
22:00 38.8 °F /  3.8 °C 36.5 °F /  2.5 °C 29.6in /  1002.4hPa Calm     91% 0.02in /  0.5mm 0 W/m2
22:05 38.7 °F /  3.7 °C 36.3 °F /  2.4 °C 29.6in /  1002.7hPa Calm     91% 0.02in /  0.5mm 0 W/m2
22:10 38.5 °F /  3.6 °C 36.1 °F /  2.3 °C 29.6in /  1002.7hPa Calm     91% 0.03in /  0.8mm 0 W/m2
22:16 38.3 °F /  3.5 °C 36 °F /  2.2 °C 29.6in /  1002.7hPa Calm     91% 0.04in /  1.0mm 0 W/m2
22:21 37.8 °F /  3.2 °C 35.4 °F /  1.9 °C 29.6in /  1002.4hPa Calm     91% 0.05in /  1.3mm 0 W/m2
22:26 37.4 °F /  3 °C 35.2 °F /  1.8 °C 29.6in /  1002.4hPa Calm     92% 0.06in /  1.5mm 0 W/m2
22:31 37 °F /  2.8 °C 34.9 °F /  1.6 °C 29.6in /  1002.4hPa Calm     92% 0.06in /  1.5mm 0 W/m2
22:36 36.9 °F /  2.7 °C 34.7 °F /  1.5 °C 29.6in /  1002.4hPa Calm   1mph /  1.6km/h 92% 0.06in /  1.5mm 0 W/m2
22:41 36.7 °F /  2.6 °C 34.9 °F /  1.6 °C 29.6in /  1002.4hPa Calm   15mph /  24.1km/h 93% 0.06in /  1.5mm 0 W/m2
22:46 36.7 °F /  2.6 °C 34.9 °F /  1.6 °C 29.6in /  1002.4hPa Calm   1mph /  1.6km/h 93% 0.06in /  1.5mm 0 W/m2
22:51 36.7 °F /  2.6 °C 34.9 °F /  1.6 °C 29.6in /  1002.4hPa Calm   15mph /  24.1km/h 93% 0.06in /  1.5mm 0 W/m2
22:56 36.7 °F /  2.6 °C 34.9 °F /  1.6 °C 29.6in /  1002.4hPa Calm     93% 0.06in /  1.5mm 0 W/m2
23:01 36.9 °F /  2.7 °C 35.1 °F /  1.7 °C 29.6in /  1002.4hPa Calm     93% 0.06in /  1.5mm 0 W/m2
23:06 36.9 °F /  2.7 °C 35.1 °F /  1.7 °C 29.6in /  1002.4hPa Calm     93% 0.06in /  1.5mm 0 W/m2
23:11 36.9 °F /  2.7 °C 35.1 °F /  1.7 °C 29.6in /  1002.4hPa Calm     93% 0.05in /  1.3mm 0 W/m2
23:16 36.9 °F /  2.7 °C 35.2 °F /  1.8 °C 29.6in /  1002.4hPa Calm     94% 0.04in /  1.0mm 0 W/m2
23:21 37 °F /  2.8 °C 35.4 °F /  1.9 °C 29.6in /  1002.4hPa Calm     94% 0.03in /  0.8mm 0 W/m2
23:26 37.2 °F /  2.9 °C 35.6 °F /  2 °C 29.6in /  1002.7hPa Calm     94% 0.02in /  0.5mm 0 W/m2
23:31 37.2 °F /  2.9 °C 35.6 °F /  2 °C 29.6in /  1002.7hPa Calm     94% 0.02in /  0.5mm 0 W/m2
23:37 37.6 °F /  3.1 °C 36 °F /  2.2 °C 29.6in /  1002.7hPa Calm     94% 0.02in /  0.5mm 0 W/m2
23:42 37.6 °F /  3.1 °C 36 °F /  2.2 °C 29.6in /  1002.7hPa Calm     94% 0.02in /  0.5mm 0 W/m2
23:47 37.6 °F /  3.1 °C 36 °F /  2.2 °C 29.6in /  1002.7hPa Calm     94% 0.02in /  0.5mm 0 W/m2
23:52 37.6 °F /  3.1 °C 36 °F /  2.2 °C 29.6in /  1003.0hPa Calm     94% 0.02in /  0.5mm 0 W/m2
23:57 37.6 °F /  3.1 °C 36 °F /  2.2 °C 29.6in /  1003.0hPa Calm     94% 0.01in /  0.2mm 0 W/m2
Juneau County Weather
Compliments of Weather Underground - 4 mb